Time;durP1;ratioP1;P1;durP2;ratioP2;P2;SDS_P1;SDS_P2;PMS_P1;PMS_P2;Temp;Humidity;BMP_temperature;BMP_pressure;BME280_temperature;BME280_humidity;BME280_pressure;Samples;Min_cycle;Max_cycle;Signal;HPM_P1;HPM_P2
2021/09/10 00:01:57;;;;;;;23.00;13.13;;;;;;;;;;4992395;28;20089;-72
2021/09/10 00:04:22;;;;;;;14.93;9.18;;;;;;;;;;4992603;28;20426;-72
2021/09/10 00:06:49;;;;;;;16.95;9.25;;;;;;;;;;4990582;28;20030;-73
2021/09/10 00:09:16;;;;;;;17.70;9.57;;;;;;;;;;4992022;28;20045;-73
2021/09/10 00:11:41;;;;;;;25.92;12.20;;;;;;;;;;4992037;28;20026;-72
2021/09/10 00:14:07;;;;;;;27.70;10.90;;;;;;;;;;4974448;28;20041;-72
2021/09/10 00:16:32;;;;;;;23.02;10.10;;;;;;;;;;4974496;28;20026;-73
2021/09/10 00:18:58;;;;;;;19.73;10.95;;;;;;;;;;4990533;28;20092;-73
2021/09/10 00:21:23;;;;;;;17.13;9.43;;;;;;;;;;4990783;28;20025;-72
2021/09/10 00:23:49;;;;;;;21.05;9.75;;;;;;;;;;4991536;28;20149;-72
2021/09/10 00:26:14;;;;;;;20.60;9.57;;;;;;;;;;4974204;28;20263;-72
2021/09/10 00:28:40;;;;;;;29.00;12.02;;;;;;;;;;4991549;28;20108;-72
2021/09/10 00:31:05;;;;;;;25.42;11.85;;;;;;;;;;4991495;28;20081;-73
2021/09/10 00:33:31;;;;;;;23.70;10.88;;;;;;;;;;4974189;28;20541;-73
2021/09/10 00:35:57;;;;;;;19.20;10.13;;;;;;;;;;4974023;28;20037;-73
2021/09/10 00:38:22;;;;;;;19.33;10.32;;;;;;;;;;4991744;28;20216;-72
2021/09/10 00:40:48;;;;;;;20.77;10.07;;;;;;;;;;4974712;28;20023;-74
2021/09/10 00:43:13;;;;;;;23.35;10.13;;;;;;;;;;4974530;28;20125;-73
2021/09/10 00:45:44;;;;;;;18.02;9.75;;;;;;;;;;4992186;28;20122;-72
2021/09/10 00:48:09;;;;;;;23.75;10.23;;;;;;;;;;4992071;28;20061;-72
2021/09/10 00:50:35;;;;;;;20.50;9.52;;;;;;;;;;4992212;28;20120;-72
2021/09/10 00:53:01;;;;;;;20.08;10.30;;;;;;;;;;4973960;28;20483;-72
2021/09/10 00:55:28;;;;;;;20.48;8.95;;;;;;;;;;4973840;28;20121;-73
2021/09/10 00:57:53;;;;;;;18.85;9.55;;;;;;;;;;4973630;28;20022;-73
2021/09/10 01:00:19;;;;;;;20.17;9.90;;;;;;;;;;4990079;28;20471;-73
2021/09/10 01:02:46;;;;;;;23.20;9.18;;;;;;;;;;4991520;28;20026;-73
2021/09/10 01:05:12;;;;;;;18.38;8.90;;;;;;;;;;4957271;28;20037;-73
2021/09/10 01:07:37;;;;;;;25.02;9.18;;;;;;;;;;4990950;28;20250;-73
2021/09/10 01:10:06;;;;;;;22.38;8.20;;;;;;;;;;4990851;28;20026;-73
2021/09/10 01:12:31;;;;;;;15.18;8.77;;;;;;;;;;4990891;28;20031;-73
2021/09/10 01:14:58;;;;;;;21.20;9.35;;;;;;;;;;4989281;28;20026;-73
2021/09/10 01:17:24;;;;;;;23.52;11.38;;;;;;;;;;4990899;28;20030;-73
2021/09/10 01:19:50;;;;;;;21.20;9.43;;;;;;;;;;4990752;28;20030;-74
2021/09/10 01:22:15;;;;;;;23.08;8.90;;;;;;;;;;4990880;28;20489;-73
2021/09/10 01:25:01;;;;;;;17.35;8.82;;;;;;;;;;4957197;28;20034;-73
2021/09/10 01:27:27;;;;;;;19.05;8.82;;;;;;;;;;4990245;28;20042;-73
2021/09/10 01:29:52;;;;;;;16.67;8.95;;;;;;;;;;4988968;28;20046;-73
2021/09/10 01:32:18;;;;;;;21.75;9.18;;;;;;;;;;4990675;28;20586;-73
2021/09/10 01:34:43;;;;;;;13.90;7.65;;;;;;;;;;4972991;28;20038;-74
2021/09/10 01:37:09;;;;;;;33.53;9.65;;;;;;;;;;4990277;28;20344;-72
2021/09/10 01:39:34;;;;;;;23.90;8.30;;;;;;;;;;4990458;28;20030;-73
2021/09/10 01:42:00;;;;;;;17.60;8.85;;;;;;;;;;4972830;28;20033;-73
2021/09/10 01:44:26;;;;;;;19.40;8.02;;;;;;;;;;4990755;28;20479;-73
2021/09/10 01:46:51;;;;;;;21.13;9.02;;;;;;;;;;4989829;28;20030;-73
2021/09/10 01:49:16;;;;;;;21.55;8.63;;;;;;;;;;4991412;28;20085;-74
2021/09/10 01:51:42;;;;;;;20.40;10.65;;;;;;;;;;4991467;28;20037;-73
2021/09/10 01:54:08;;;;;;;20.88;10.30;;;;;;;;;;4991577;28;20101;-74
2021/09/10 01:56:33;;;;;;;16.83;8.68;;;;;;;;;;4973768;28;20109;-72
2021/09/10 01:58:59;;;;;;;14.13;7.75;;;;;;;;;;4990776;28;20052;-72
2021/09/10 02:01:30;;;;;;;15.63;8.70;;;;;;;;;;4972829;28;20152;-74
2021/09/10 02:03:56;;;;;;;29.17;8.70;;;;;;;;;;4990318;28;20030;-73
2021/09/10 02:06:21;;;;;;;18.83;9.10;;;;;;;;;;4972786;28;20053;-73
2021/09/10 02:08:46;;;;;;;18.95;8.45;;;;;;;;;;4972991;28;20023;-74
2021/09/10 02:11:12;;;;;;;15.95;8.40;;;;;;;;;;4990038;28;20498;-71
2021/09/10 02:13:38;;;;;;;19.05;9.55;;;;;;;;;;4988829;28;20026;-71
2021/09/10 02:16:04;;;;;;;17.65;8.82;;;;;;;;;;4990190;28;20471;-72
2021/09/10 02:18:29;;;;;;;19.83;8.57;;;;;;;;;;4990147;28;20081;-74
2021/09/10 02:20:55;;;;;;;23.88;8.38;;;;;;;;;;4972755;28;20027;-72
2021/09/10 02:23:20;;;;;;;12.75;7.55;;;;;;;;;;4990310;28;20422;-72
2021/09/10 02:25:46;;;;;;;18.27;8.93;;;;;;;;;;4990459;28;20046;-72
2021/09/10 02:28:11;;;;;;;21.15;8.45;;;;;;;;;;4972544;28;20549;-71
2021/09/10 02:30:37;;;;;;;17.42;8.18;;;;;;;;;;4990411;28;20046;-71
2021/09/10 02:33:02;;;;;;;21.48;9.90;;;;;;;;;;4990507;28;20455;-71
2021/09/10 02:35:28;;;;;;;22.90;8.50;;;;;;;;;;4972753;28;20554;-72
2021/09/10 02:37:54;;;;;;;29.98;9.38;;;;;;;;;;4989889;28;20538;-72
2021/09/10 02:40:20;;;;;;;21.20;9.23;;;;;;;;;;4972625;28;20129;-71
2021/09/10 02:42:47;;;;;;;17.77;8.63;;;;;;;;;;4972385;28;20511;-71
2021/09/10 02:45:13;;;;;;;23.90;9.73;;;;;;;;;;4972245;28;20443;-71
2021/09/10 02:47:39;;;;;;;17.35;8.43;;;;;;;;;;4972475;28;20066;-70
2021/09/10 02:50:05;;;;;;;23.35;8.98;;;;;;;;;;4972328;28;20057;-71
2021/09/10 02:52:32;;;;;;;21.85;9.10;;;;;;;;;;4972462;28;20644;-71
2021/09/10 02:54:58;;;;;;;20.13;9.43;;;;;;;;;;4989973;28;20490;-70
2021/09/10 02:57:23;;;;;;;19.52;9.15;;;;;;;;;;4989985;28;20061;-73
2021/09/10 02:59:49;;;;;;;18.23;10.13;;;;;;;;;;4972634;28;20026;-72
2021/09/10 03:02:14;;;;;;;16.98;7.63;;;;;;;;;;4990078;28;20105;-72
2021/09/10 03:04:44;;;;;;;23.52;9.15;;;;;;;;;;4973326;28;20026;-71
2021/09/10 03:07:10;;;;;;;21.80;8.40;;;;;;;;;;4993355;28;20550;-70
2021/09/10 03:09:35;;;;;;;26.60;9.40;;;;;;;;;;4993362;28;20018;-70
2021/09/10 03:12:01;;;;;;;21.10;9.52;;;;;;;;;;4975340;28;20029;-72
2021/09/10 03:14:26;;;;;;;19.42;9.02;;;;;;;;;;4993180;28;20023;-71
2021/09/10 03:16:52;;;;;;;17.40;8.68;;;;;;;;;;4993084;28;20387;-71
2021/09/10 03:19:17;;;;;;;23.48;8.65;;;;;;;;;;4992999;28;20414;-71
2021/09/10 03:21:43;;;;;;;24.40;8.85;;;;;;;;;;4975480;28;20084;-73
2021/09/10 03:24:08;;;;;;;24.48;9.15;;;;;;;;;;4992830;28;20033;-72
2021/09/10 03:26:35;;;;;;;28.05;9.93;;;;;;;;;;4975263;28;20052;-69
2021/09/10 03:29:00;;;;;;;27.92;9.38;;;;;;;;;;4974972;28;20240;-72
2021/09/10 03:31:26;;;;;;;19.67;9.93;;;;;;;;;;4992819;28;20392;-70
2021/09/10 03:33:51;;;;;;;17.90;8.40;;;;;;;;;;4993037;28;20152;-71
2021/09/10 03:36:18;;;;;;;15.88;8.02;;;;;;;;;;4992367;28;20138;-71
2021/09/10 03:38:43;;;;;;;14.88;7.60;;;;;;;;;;4975130;28;20449;-71
2021/09/10 03:41:09;;;;;;;14.73;8.02;;;;;;;;;;4992482;28;20030;-71
2021/09/10 03:43:35;;;;;;;23.85;8.52;;;;;;;;;;4993318;28;20030;-71
2021/09/10 03:46:01;;;;;;;16.58;8.00;;;;;;;;;;4991190;28;20100;-71
2021/09/10 03:48:26;;;;;;;18.73;8.50;;;;;;;;;;4991359;28;20058;-72
2021/09/10 03:50:52;;;;;;;18.23;8.23;;;;;;;;;;4975086;28;20035;-72
2021/09/10 03:53:18;;;;;;;27.92;10.10;;;;;;;;;;4975322;28;20038;-70
2021/09/10 03:55:43;;;;;;;23.95;10.05;;;;;;;;;;4992455;28;20406;-71
2021/09/10 03:58:09;;;;;;;23.75;10.27;;;;;;;;;;4992363;28;20394;-71
2021/09/10 04:00:34;;;;;;;28.58;12.40;;;;;;;;;;4992752;28;20049;-71
2021/09/10 04:03:03;;;;;;;23.20;12.50;;;;;;;;;;4992473;28;20058;-71
2021/09/10 04:05:29;;;;;;;33.08;12.15;;;;;;;;;;4992323;28;20049;-71
2021/09/10 04:07:54;;;;;;;29.73;15.23;;;;;;;;;;4991917;28;20042;-72
2021/09/10 04:10:19;;;;;;;27.20;12.35;;;;;;;;;;4992048;28;20081;-71
2021/09/10 04:12:45;;;;;;;24.17;12.82;;;;;;;;;;4974525;28;20114;-70
2021/09/10 04:15:10;;;;;;;34.60;14.02;;;;;;;;;;4992301;28;20382;-70
2021/09/10 04:17:36;;;;;;;27.10;13.40;;;;;;;;;;4990932;28;20065;-71
2021/09/10 04:20:03;;;;;;;25.98;11.88;;;;;;;;;;4974329;28;20031;-72
2021/09/10 04:22:29;;;;;;;31.42;12.65;;;;;;;;;;4990704;28;20458;-71
2021/09/10 04:24:54;;;;;;;28.30;11.45;;;;;;;;;;4974262;28;20058;-71
2021/09/10 04:27:20;;;;;;;26.25;12.48;;;;;;;;;;4992125;28;20029;-71
2021/09/10 04:29:46;;;;;;;51.13;13.48;;;;;;;;;;4974088;28;20053;-72
2021/09/10 04:32:12;;;;;;;44.70;13.35;;;;;;;;;;4991772;28;20034;-71
2021/09/10 04:34:37;;;;;;;34.20;12.02;;;;;;;;;;4991590;28;20525;-71
2021/09/10 04:37:06;;;;;;;27.92;12.95;;;;;;;;;;4973890;28;20038;-71
2021/09/10 04:39:32;;;;;;;41.42;12.10;;;;;;;;;;4991628;28;20034;-71
2021/09/10 04:41:57;;;;;;;47.47;15.05;;;;;;;;;;4991615;28;20033;-71
2021/09/10 04:44:23;;;;;;;43.92;13.60;;;;;;;;;;4991255;28;20030;-72
2021/09/10 04:46:48;;;;;;;36.22;17.17;;;;;;;;;;4991474;28;20041;-71
2021/09/10 04:49:14;;;;;;;42.60;14.35;;;;;;;;;;4991077;28;20034;-72
2021/09/10 04:51:39;;;;;;;32.15;13.90;;;;;;;;;;4974201;28;20394;-71
2021/09/10 04:54:05;;;;;;;39.78;11.88;;;;;;;;;;4991273;28;20037;-72
2021/09/10 04:56:30;;;;;;;36.08;12.32;;;;;;;;;;4992021;28;20035;-72
2021/09/10 04:58:56;;;;;;;25.63;11.68;;;;;;;;;;4991171;28;20574;-71
2021/09/10 05:01:21;;;;;;;38.28;14.75;;;;;;;;;;4990913;28;20037;-70
2021/09/10 05:03:47;;;;;;;27.48;11.23;;;;;;;;;;4954892;28;20114;-69
2021/09/10 05:06:14;;;;;;;34.58;11.63;;;;;;;;;;4970390;28;20031;-71
2021/09/10 05:08:39;;;;;;;26.95;10.38;;;;;;;;;;4944882;28;20129;-72
2021/09/10 05:11:05;;;;;;;31.52;12.80;;;;;;;;;;4949562;28;20412;-71
2021/09/10 05:13:30;;;;;;;28.35;13.18;;;;;;;;;;4954717;28;20038;-71
2021/09/10 05:15:57;;;;;;;25.95;12.60;;;;;;;;;;4959341;28;20063;-71
2021/09/10 05:18:23;;;;;;;20.73;10.48;;;;;;;;;;4969940;28;20081;-72
2021/09/10 05:20:49;;;;;;;23.92;11.73;;;;;;;;;;4964398;28;20066;-73
2021/09/10 05:23:14;;;;;;;22.23;11.45;;;;;;;;;;4972694;28;20043;-72
2021/09/10 05:25:40;;;;;;;27.08;11.88;;;;;;;;;;4966805;28;20031;-71
2021/09/10 05:28:05;;;;;;;22.25;10.80;;;;;;;;;;4955570;28;20030;-73
2021/09/10 05:30:31;;;;;;;35.83;14.60;;;;;;;;;;4953591;28;20107;-73
2021/09/10 05:32:57;;;;;;;22.85;10.43;;;;;;;;;;4950246;29;20073;-72
2021/09/10 05:35:22;;;;;;;22.08;13.52;;;;;;;;;;4964330;28;20066;-73
2021/09/10 05:37:48;;;;;;;22.88;11.40;;;;;;;;;;4952564;29;20039;-72
2021/09/10 05:40:13;;;;;;;31.30;16.83;;;;;;;;;;4951899;29;20027;-71
2021/09/10 05:42:39;;;;;;;31.15;13.18;;;;;;;;;;4943762;28;20035;-71
2021/09/10 05:45:08;;;;;;;26.15;12.35;;;;;;;;;;4970848;28;20041;-71
2021/09/10 05:47:34;;;;;;;25.90;12.40;;;;;;;;;;4952400;28;20031;-71
2021/09/10 05:49:59;;;;;;;25.23;10.13;;;;;;;;;;4971016;28;20034;-71
2021/09/10 05:52:48;;;;;;;19.17;10.43;;;;;;;;;;4935733;28;20047;-72
2021/09/10 05:55:14;;;;;;;20.85;9.88;;;;;;;;;;4958087;28;20063;-74
2021/09/10 05:57:40;;;;;;;18.17;9.63;;;;;;;;;;4983599;28;20085;-73
2021/09/10 06:00:07;;;;;;;25.88;11.88;;;;;;;;;;4961934;28;20380;-73
2021/09/10 06:02:33;;;;;;;14.80;9.57;;;;;;;;;;4950679;28;20332;-74
2021/09/10 06:04:58;;;;;;;22.50;10.85;;;;;;;;;;4956137;28;20039;-74
2021/09/10 06:07:25;;;;;;;26.13;12.00;;;;;;;;;;4966755;28;20124;-74
2021/09/10 06:09:51;;;;;;;30.40;10.75;;;;;;;;;;4949189;29;20031;-73
2021/09/10 06:12:17;;;;;;;19.40;10.85;;;;;;;;;;4966725;28;20037;-74
2021/09/10 06:14:42;;;;;;;21.40;9.88;;;;;;;;;;4949621;28;20178;-73
2021/09/10 06:17:12;;;;;;;20.08;10.18;;;;;;;;;;4960372;28;20090;-76
2021/09/10 06:19:38;;;;;;;19.20;10.30;;;;;;;;;;4924281;28;20190;-73
2021/09/10 06:22:04;;;;;;;17.75;10.27;;;;;;;;;;4959215;28;20102;-74
2021/09/10 06:24:29;;;;;;;26.58;11.43;;;;;;;;;;4955678;28;20035;-71
2021/09/10 06:26:55;;;;;;;17.65;9.85;;;;;;;;;;4966166;28;20041;-72
2021/09/10 06:29:20;;;;;;;18.90;9.70;;;;;;;;;;4967616;28;20050;-73
2021/09/10 06:31:49;;;;;;;27.98;10.80;;;;;;;;;;4945905;28;20038;-74
2021/09/10 06:34:20;;;;;;;25.65;10.77;;;;;;;;;;4950527;28;20395;-74
2021/09/10 06:36:47;;;;;;;24.90;10.65;;;;;;;;;;4963401;28;20050;-73
2021/09/10 06:39:14;;;;;;;20.13;9.43;;;;;;;;;;4946591;28;20083;-73
2021/09/10 06:41:40;;;;;;;40.55;12.30;;;;;;;;;;4972852;28;20471;-72
2021/09/10 06:44:05;;;;;;;20.92;9.57;;;;;;;;;;4945121;28;20062;-73
2021/09/10 06:46:31;;;;;;;19.65;9.30;;;;;;;;;;4969450;28;20050;-73
2021/09/10 06:48:56;;;;;;;16.77;8.95;;;;;;;;;;4971567;28;20038;-73
2021/09/10 06:51:22;;;;;;;21.58;8.95;;;;;;;;;;4971621;28;20058;-74
2021/09/10 06:53:49;;;;;;;30.55;10.80;;;;;;;;;;4971316;28;20027;-72
2021/09/10 06:56:14;;;;;;;22.30;10.40;;;;;;;;;;4971798;28;20110;-74
2021/09/10 06:58:43;;;;;;;23.85;9.57;;;;;;;;;;4971137;28;20101;-76
2021/09/10 07:01:08;;;;;;;21.00;9.68;;;;;;;;;;4971735;28;20037;-74
2021/09/10 07:03:34;;;;;;;19.60;9.15;;;;;;;;;;4970646;28;20030;-75
2021/09/10 07:05:59;;;;;;;27.27;10.07;;;;;;;;;;4972455;28;20108;-73
2021/09/10 07:08:25;;;;;;;22.42;11.13;;;;;;;;;;4971867;28;20035;-73
2021/09/10 07:10:51;;;;;;;20.52;11.00;;;;;;;;;;4934120;28;20506;-74
2021/09/10 07:13:16;;;;;;;20.17;9.95;;;;;;;;;;4967655;28;20023;-73
2021/09/10 07:15:42;;;;;;;24.05;8.98;;;;;;;;;;4970741;28;20502;-73
2021/09/10 07:18:07;;;;;;;16.45;9.60;;;;;;;;;;4968003;28;20031;-73
2021/09/10 07:20:33;;;;;;;29.02;11.98;;;;;;;;;;4968037;28;20030;-73
2021/09/10 07:22:59;;;;;;;25.25;8.90;;;;;;;;;;4950188;28;20027;-72
2021/09/10 07:25:24;;;;;;;25.60;9.90;;;;;;;;;;4961541;28;20372;-74
2021/09/10 07:27:50;;;;;;;19.63;9.77;;;;;;;;;;4959969;28;20093;-74
2021/09/10 07:30:16;;;;;;;23.08;9.10;;;;;;;;;;4937525;28;20060;-75
2021/09/10 07:32:42;;;;;;;17.02;8.80;;;;;;;;;;4961594;28;20483;-74
2021/09/10 07:35:08;;;;;;;17.88;8.55;;;;;;;;;;4964948;28;20092;-74
2021/09/10 07:37:34;;;;;;;21.55;9.07;;;;;;;;;;4959418;28;20034;-72
2021/09/10 07:39:59;;;;;;;23.77;14.55;;;;;;;;;;4962002;28;20034;-74
2021/09/10 07:42:25;;;;;;;26.50;9.25;;;;;;;;;;4956816;28;20337;-73
2021/09/10 07:44:51;;;;;;;18.65;9.65;;;;;;;;;;4939828;28;20036;-75
2021/09/10 07:47:18;;;;;;;15.50;9.27;;;;;;;;;;4930213;29;20038;-75
2021/09/10 07:49:44;;;;;;;22.85;9.95;;;;;;;;;;4961207;28;20031;-74
2021/09/10 07:52:09;;;;;;;19.35;8.82;;;;;;;;;;4940312;28;20094;-74
2021/09/10 07:54:37;;;;;;;21.13;12.80;;;;;;;;;;4956805;28;20086;-75
2021/09/10 07:57:03;;;;;;;13.93;7.82;;;;;;;;;;4956466;28;20079;-72
2021/09/10 07:59:29;;;;;;;22.35;9.07;;;;;;;;;;4961438;28;20395;-73
2021/09/10 08:01:55;;;;;;;14.20;8.18;;;;;;;;;;4943107;29;20035;-74
2021/09/10 08:04:29;;;;;;;19.33;9.93;;;;;;;;;;4959886;28;20093;-73
2021/09/10 08:06:55;;;;;;;102.18;15.75;;;;;;;;;;4961927;28;20041;-73
2021/09/10 08:09:20;;;;;;;16.63;8.73;;;;;;;;;;4954749;28;20040;-74
2021/09/10 08:11:47;;;;;;;41.10;10.52;;;;;;;;;;4954003;28;20082;-73
2021/09/10 08:14:13;;;;;;;17.50;8.98;;;;;;;;;;4953305;28;20035;-73
2021/09/10 08:16:39;;;;;;;43.30;10.90;;;;;;;;;;4948019;28;20023;-74
2021/09/10 08:19:05;;;;;;;22.05;8.70;;;;;;;;;;4934098;29;20533;-73
2021/09/10 08:21:32;;;;;;;18.70;9.25;;;;;;;;;;4956049;28;20023;-73
2021/09/10 08:23:57;;;;;;;28.80;9.30;;;;;;;;;;4936993;29;20031;-73
2021/09/10 08:26:25;;;;;;;16.55;7.90;;;;;;;;;;4936334;28;20055;-74
2021/09/10 08:28:50;;;;;;;32.33;9.73;;;;;;;;;;4951938;28;20047;-73
2021/09/10 08:31:16;;;;;;;62.47;12.52;;;;;;;;;;4956043;28;20447;-74
2021/09/10 08:33:41;;;;;;;26.27;10.07;;;;;;;;;;4952064;28;20420;-73
2021/09/10 08:36:07;;;;;;;24.63;10.15;;;;;;;;;;4956835;28;20034;-72
2021/09/10 08:38:33;;;;;;;22.20;10.02;;;;;;;;;;4936263;28;20479;-73
2021/09/10 08:41:01;;;;;;;24.52;8.60;;;;;;;;;;4934417;28;20027;-73
2021/09/10 08:43:27;;;;;;;28.60;10.07;;;;;;;;;;4936500;28;20039;-73
2021/09/10 08:45:56;;;;;;;33.30;10.10;;;;;;;;;;4940930;28;20832;-75
2021/09/10 08:48:24;;;;;;;29.98;11.48;;;;;;;;;;4954939;28;20047;-73
2021/09/10 08:50:50;;;;;;;23.05;10.27;;;;;;;;;;4943870;28;20093;-74
2021/09/10 08:53:16;;;;;;;16.15;9.13;;;;;;;;;;4939530;28;20722;-73
2021/09/10 08:55:43;;;;;;;19.73;8.18;;;;;;;;;;4932602;28;20035;-74
2021/09/10 08:58:09;;;;;;;23.05;9.10;;;;;;;;;;4951132;28;20479;-74
2021/09/10 09:00:37;;;;;;;21.77;9.93;;;;;;;;;;4942612;28;20098;-73
2021/09/10 09:03:10;;;;;;;36.20;10.90;;;;;;;;;;4934207;28;20465;-73
2021/09/10 09:05:38;;;;;;;22.77;10.82;;;;;;;;;;4954907;28;20049;-74
2021/09/10 09:08:12;;;;;;;27.13;11.68;;;;;;;;;;4933762;28;20506;-74
2021/09/10 09:11:07;;;;;;;18.05;9.57;;;;;;;;;;4951697;28;20039;-72
2021/09/10 09:13:36;;;;;;;27.00;10.20;;;;;;;;;;4950976;28;20566;-74
2021/09/10 09:16:30;;;;;;;22.73;9.50;;;;;;;;;;4931429;28;20038;-74
2021/09/10 09:18:57;;;;;;;24.35;12.57;;;;;;;;;;4935113;28;20526;-72
2021/09/10 09:21:37;;;;;;;28.60;12.57;;;;;;;;;;4937703;28;20358;-73
2021/09/10 09:24:22;;;;;;;52.80;13.30;;;;;;;;;;4955293;28;20031;-74
2021/09/10 09:26:52;;;;;;;48.60;14.80;;;;;;;;;;4935782;28;20054;-73
2021/09/10 09:29:21;;;;;;;26.40;12.05;;;;;;;;;;4955051;28;20554;-73
2021/09/10 09:31:59;;;;;;;29.55;10.90;;;;;;;;;;4942108;28;20040;-73
2021/09/10 09:34:47;;;;;;;54.22;14.32;;;;;;;;;;4955198;28;20041;-74
2021/09/10 09:37:18;;;;;;;26.38;11.43;;;;;;;;;;4950075;28;20029;-73
2021/09/10 09:39:59;;;;;;;23.40;10.60;;;;;;;;;;4951155;28;21183;-74
2021/09/10 09:42:36;;;;;;;22.25;11.98;;;;;;;;;;4952769;28;20062;-73
2021/09/10 09:45:20;;;;;;;34.92;12.20;;;;;;;;;;4955826;28;20173;-72
2021/09/10 09:47:45;;;;;;;29.05;12.88;;;;;;;;;;4949801;28;20034;-74
2021/09/10 09:50:17;;;;;;;28.23;10.95;;;;;;;;;;4953413;28;20050;-74
2021/09/10 09:52:44;;;;;;;30.27;12.43;;;;;;;;;;4952052;28;20607;-74
2021/09/10 09:55:12;;;;;;;27.08;11.98;;;;;;;;;;4934128;28;20437;-75
2021/09/10 09:57:42;;;;;;;22.88;11.95;;;;;;;;;;4950056;28;20042;-73
2021/09/10 10:00:10;;;;;;;20.05;11.02;;;;;;;;;;4956956;28;20037;-75
2021/09/10 10:02:37;;;;;;;28.27;12.88;;;;;;;;;;4958160;28;20023;-73
2021/09/10 10:05:03;;;;;;;32.08;13.52;;;;;;;;;;4939969;28;20110;-72
2021/09/10 10:07:45;;;;;;;24.85;11.95;;;;;;;;;;4939940;28;20027;-74
2021/09/10 10:10:13;;;;;;;22.38;11.38;;;;;;;;;;4955602;28;20027;-73
2021/09/10 10:12:41;;;;;;;26.85;11.70;;;;;;;;;;4924255;29;20068;-74
2021/09/10 10:15:28;;;;;;;28.23;11.50;;;;;;;;;;4954599;28;20415;-73
2021/09/10 10:17:56;;;;;;;38.03;16.92;;;;;;;;;;4949347;28;20043;-74
2021/09/10 10:20:51;;;;;;;35.50;15.15;;;;;;;;;;4945267;28;20814;-74
2021/09/10 10:23:41;;;;;;;24.17;12.95;;;;;;;;;;4957440;28;21265;-73
2021/09/10 10:26:09;;;;;;;28.20;12.57;;;;;;;;;;4961735;28;20034;-74
2021/09/10 10:28:45;;;;;;;33.97;12.77;;;;;;;;;;4959883;28;20034;-73
2021/09/10 10:31:13;;;;;;;34.35;16.02;;;;;;;;;;4939844;28;20115;-72
2021/09/10 10:34:04;;;;;;;31.45;12.95;;;;;;;;;;4958046;28;20109;-74
2021/09/10 10:36:32;;;;;;;34.65;16.02;;;;;;;;;;4949970;28;20023;-73
2021/09/10 10:39:07;;;;;;;34.80;14.38;;;;;;;;;;4959209;28;20034;-74
2021/09/10 10:41:52;;;;;;;26.55;13.55;;;;;;;;;;4943641;28;20062;-73
2021/09/10 10:44:33;;;;;;;26.33;12.48;;;;;;;;;;4950243;28;20032;-73
2021/09/10 10:47:19;;;;;;;22.05;11.48;;;;;;;;;;4959624;28;20117;-73
2021/09/10 10:49:46;;;;;;;18.15;10.13;;;;;;;;;;4929822;28;20114;-72
2021/09/10 10:52:31;;;;;;;30.52;12.40;;;;;;;;;;4958170;28;20062;-73
2021/09/10 10:55:19;;;;;;;27.60;11.38;;;;;;;;;;4943052;28;20031;-74
2021/09/10 10:57:50;;;;;;;19.63;11.65;;;;;;;;;;4954549;28;20030;-74
2021/09/10 11:00:41;;;;;;;24.45;12.30;;;;;;;;;;4960749;28;20050;-74
2021/09/10 11:03:13;;;;;;;19.20;10.10;;;;;;;;;;4926280;28;20554;-73
2021/09/10 11:05:43;;;;;;;22.63;11.02;;;;;;;;;;4940603;28;20042;-73
2021/09/10 11:08:09;;;;;;;24.40;12.10;;;;;;;;;;4938921;28;20484;-74
2021/09/10 11:10:35;;;;;;;21.10;11.27;;;;;;;;;;4943305;28;20562;-73
2021/09/10 11:13:02;;;;;;;23.90;10.68;;;;;;;;;;4941080;29;20110;-74
2021/09/10 11:15:34;;;;;;;17.85;10.55;;;;;;;;;;4959523;28;20034;-73
2021/09/10 11:18:11;;;;;;;24.40;13.52;;;;;;;;;;4959097;28;20026;-73
2021/09/10 11:20:43;;;;;;;24.60;11.52;;;;;;;;;;4959289;28;20043;-73
2021/09/10 11:23:10;;;;;;;19.02;11.43;;;;;;;;;;4960276;28;20035;-74
2021/09/10 11:25:51;;;;;;;23.30;10.55;;;;;;;;;;4959208;28;20121;-72
2021/09/10 11:28:18;;;;;;;22.73;11.23;;;;;;;;;;4961234;28;20031;-74
2021/09/10 11:30:45;;;;;;;19.52;11.32;;;;;;;;;;4959544;28;20046;-74
2021/09/10 11:33:10;;;;;;;22.15;13.48;;;;;;;;;;4956878;28;20031;-74
2021/09/10 11:35:38;;;;;;;21.30;10.88;;;;;;;;;;4940377;29;20035;-73
2021/09/10 11:38:09;;;;;;;21.73;10.93;;;;;;;;;;4939020;28;20034;-74
2021/09/10 11:40:44;;;;;;;22.00;11.30;;;;;;;;;;4945315;28;20269;-73
2021/09/10 11:43:13;;;;;;;27.73;11.70;;;;;;;;;;4958375;28;20513;-73
2021/09/10 11:45:57;;;;;;;21.77;11.50;;;;;;;;;;4953343;28;20430;-73
2021/09/10 11:48:28;;;;;;;23.67;10.95;;;;;;;;;;4963803;28;20086;-74
2021/09/10 11:50:57;;;;;;;25.63;12.32;;;;;;;;;;4942535;28;20039;-73
2021/09/10 11:53:46;;;;;;;24.10;11.43;;;;;;;;;;4956500;28;20042;-73
2021/09/10 11:56:15;;;;;;;15.23;10.93;;;;;;;;;;4960324;28;20122;-74
2021/09/10 11:58:52;;;;;;;23.92;10.57;;;;;;;;;;4921614;29;20070;-73
2021/09/10 12:01:28;;;;;;;24.23;10.32;;;;;;;;;;4959417;28;20026;-75
2021/09/10 12:04:25;;;;;;;19.88;11.85;;;;;;;;;;4941647;29;20452;-75
2021/09/10 12:06:52;;;;;;;26.85;12.10;;;;;;;;;;4955038;28;20039;-74
2021/09/10 12:09:33;;;;;;;21.38;11.13;;;;;;;;;;4960988;28;20585;-73
2021/09/10 12:12:12;;;;;;;19.88;11.43;;;;;;;;;;4945255;28;20062;-74
2021/09/10 12:14:38;;;;;;;23.23;12.20;;;;;;;;;;4949951;28;20081;-73
2021/09/10 12:17:25;;;;;;;19.73;10.75;;;;;;;;;;4955585;28;20116;-73
2021/09/10 12:20:28;;;;;;;23.42;10.75;;;;;;;;;;4954132;28;20031;-73
2021/09/10 12:23:00;;;;;;;21.15;11.70;;;;;;;;;;4957558;28;20097;-74
2021/09/10 12:25:26;;;;;;;19.38;11.00;;;;;;;;;;4941714;28;20053;-74
2021/09/10 12:27:53;;;;;;;22.90;14.52;;;;;;;;;;4952998;28;20472;-74
2021/09/10 12:30:21;;;;;;;20.42;11.60;;;;;;;;;;4948649;28;20051;-75
2021/09/10 12:32:46;;;;;;;29.15;10.85;;;;;;;;;;4943106;28;20119;-73
2021/09/10 12:35:12;;;;;;;27.85;11.73;;;;;;;;;;4939214;28;20109;-73
2021/09/10 12:37:38;;;;;;;21.80;11.05;;;;;;;;;;4962262;28;20436;-73
2021/09/10 12:40:04;;;;;;;26.08;12.63;;;;;;;;;;4961713;28;20475;-73
2021/09/10 12:42:30;;;;;;;20.05;10.48;;;;;;;;;;4938337;28;20094;-75
2021/09/10 12:44:56;;;;;;;26.17;12.02;;;;;;;;;;4930412;29;20039;-74
2021/09/10 12:47:23;;;;;;;22.13;10.50;;;;;;;;;;4941057;28;20023;-74
2021/09/10 12:49:50;;;;;;;26.60;11.50;;;;;;;;;;4942264;28;20731;-74
2021/09/10 12:52:15;;;;;;;19.20;10.98;;;;;;;;;;4952737;28;20468;-73
2021/09/10 12:54:42;;;;;;;26.10;11.63;;;;;;;;;;4955170;28;20505;-73
2021/09/10 12:57:08;;;;;;;25.13;11.73;;;;;;;;;;4945619;28;20432;-73
2021/09/10 12:59:34;;;;;;;23.40;11.02;;;;;;;;;;4953163;28;20463;-73
2021/09/10 13:02:02;;;;;;;17.88;10.48;;;;;;;;;;4958201;28;20031;-74
2021/09/10 13:04:27;;;;;;;22.45;10.80;;;;;;;;;;4935908;28;20046;-74
2021/09/10 13:06:53;;;;;;;23.88;11.43;;;;;;;;;;4943620;28;20038;-73
2021/09/10 13:09:22;;;;;;;18.73;11.35;;;;;;;;;;4954253;28;20130;-75
2021/09/10 13:11:47;;;;;;;21.48;11.27;;;;;;;;;;4955046;28;20036;-75
2021/09/10 13:14:13;;;;;;;21.45;11.35;;;;;;;;;;4958441;28;20077;-74
2021/09/10 13:16:39;;;;;;;21.63;11.75;;;;;;;;;;4964668;28;20350;-74
2021/09/10 13:19:05;;;;;;;20.85;11.50;;;;;;;;;;4962549;28;20600;-74
2021/09/10 13:21:30;;;;;;;20.70;10.68;;;;;;;;;;4945476;28;20137;-74
2021/09/10 13:23:56;;;;;;;18.63;10.20;;;;;;;;;;4959824;28;20033;-72
2021/09/10 13:26:21;;;;;;;24.55;10.25;;;;;;;;;;4942688;28;20382;-74
2021/09/10 13:28:47;;;;;;;17.20;10.60;;;;;;;;;;4962165;28;20090;-74
2021/09/10 13:31:13;;;;;;;33.15;12.70;;;;;;;;;;4959109;28;20033;-74
2021/09/10 13:33:38;;;;;;;30.63;15.30;;;;;;;;;;4956442;28;20023;-72
2021/09/10 13:36:05;;;;;;;22.33;11.82;;;;;;;;;;4956007;28;20534;-75
2021/09/10 13:38:31;;;;;;;21.27;11.10;;;;;;;;;;4939763;28;20190;-73
2021/09/10 13:40:57;;;;;;;21.88;10.02;;;;;;;;;;4964170;28;20689;-73
2021/09/10 13:43:22;;;;;;;29.85;14.95;;;;;;;;;;4968641;28;20359;-73
2021/09/10 13:45:49;;;;;;;25.48;11.05;;;;;;;;;;4969008;28;20030;-74
2021/09/10 13:48:15;;;;;;;25.00;11.52;;;;;;;;;;4968990;28;20113;-74
2021/09/10 13:50:41;;;;;;;23.55;12.18;;;;;;;;;;4964315;28;20035;-74
2021/09/10 13:53:07;;;;;;;22.02;10.43;;;;;;;;;;4969690;28;20026;-74
2021/09/10 13:55:32;;;;;;;21.85;12.02;;;;;;;;;;4966422;28;20019;-74
2021/09/10 13:57:58;;;;;;;16.38;11.95;;;;;;;;;;4957702;28;20026;-76
2021/09/10 14:00:23;;;;;;;17.05;11.05;;;;;;;;;;4970037;28;20932;-74
2021/09/10 14:02:49;;;;;;;20.33;10.25;;;;;;;;;;4954302;28;20142;-74
2021/09/10 14:05:14;;;;;;;27.20;12.40;;;;;;;;;;4949464;28;20028;-73
2021/09/10 14:07:40;;;;;;;19.30;10.15;;;;;;;;;;4955789;28;20047;-74
2021/09/10 14:10:06;;;;;;;18.70;10.02;;;;;;;;;;4933230;29;20102;-75
2021/09/10 14:12:32;;;;;;;22.15;9.40;;;;;;;;;;4969311;28;20035;-75
2021/09/10 14:14:57;;;;;;;16.88;10.50;;;;;;;;;;4970928;28;20031;-73
2021/09/10 14:17:23;;;;;;;25.30;10.23;;;;;;;;;;4954047;28;20421;-75
2021/09/10 14:19:48;;;;;;;22.88;10.90;;;;;;;;;;4953780;28;20121;-74
2021/09/10 14:22:14;;;;;;;27.52;11.23;;;;;;;;;;4950291;28;20465;-76
2021/09/10 14:24:39;;;;;;;22.90;9.60;;;;;;;;;;4939460;29;20036;-75
2021/09/10 14:27:05;;;;;;;18.42;10.35;;;;;;;;;;4954734;28;20027;-76